Anna Maersk — OXBA2 — position and weather

sailwx.info

Track history (hours):
 
Tides and Currents Weather Stations Pressure Air Temp Water Temp Dewpoint Dewpoint Depression Visibility Wind Speed Wind Dir Waves Ship Positions

Anna Maersk

Last reported at 2017-Oct-06 18:52 UTC. Time now 2017-Oct-20 17:45 UTC.
Position N 36°19' E 014°51'.
Warning: this ship's position is 13 days out of date.

Length 352 m; draft 11.3 m.

Type: Ship (hazmat cat A). MMSI: 220199000.

Date/timePositionNaut miles runAvg speedWind from/ knotsBaromVisibWave heightAir tempDewpointWater temp
2017-Oct-06 18:52N 36°19' E 014°51'718.5
2017-Oct-06 18:30N 36°22' E 014°43'918.7
2017-Oct-06 18:00N 36°26' E 014°33'1019.4
2017-Oct-06 17:30N 36°30' E 014°22'1019.7
2017-Oct-06 17:00N 36°33' E 014°11'1019.7
2017-Oct-06 16:30N 36°36' E 013°59'1019.3
2017-Oct-06 16:00N 36°38' E 013°47'919.1
2017-Oct-06 15:30N 36°40' E 013°36'  
2017-Oct-04 06:41N 36°03' W 007°51'317.3
2017-Oct-04 06:31N 36°04' W 007°55'1117.3
2017-Oct-04 05:53N 36°05' W 008°08'617.0
2017-Oct-04 05:30N 36°05' W 008°16'917.0
2017-Oct-04 05:00N 36°07' W 008°27'817.2
2017-Oct-04 04:31N 36°07' W 008°37'916.9
2017-Oct-04 04:00N 36°08' W 008°48'917.1
2017-Oct-04 03:30N 36°09' W 008°58'917.3
2017-Oct-04 03:01N 36°10' W 009°09'917.6
2017-Oct-04 02:30N 36°11' W 009°20'917.5
2017-Oct-04 02:00N 36°12' W 009°31'917.2
2017-Oct-04 01:31N 36°12' W 009°41'917.1
2017-Oct-04 01:00N 36°13' W 009°52'916.9
2017-Oct-04 00:27N 36°14' W 010°03'817.1
2017-Oct-04 00:00N 36°14' W 010°13'917.3
2017-Oct-03 23:30N 36°15' W 010°23'917.4
2017-Oct-03 23:01N 36°16' W 010°34'917.3
2017-Oct-03 22:30N 36°17' W 010°45'917.3
2017-Oct-03 22:01N 36°17' W 010°56'917.4
2017-Oct-03 21:30N 36°17' W 011°06'917.3
2017-Oct-03 21:00N 36°18' W 011°17'917.5
2017-Oct-03 20:30N 36°18' W 011°28'917.4
2017-Oct-03 20:00N 36°19' W 011°39'917.2
2017-Oct-03 19:30N 36°20' W 011°49'917.1
2017-Oct-03 19:00N 36°20' W 011°60'917.1
2017-Oct-03 18:30N 36°21' W 012°10'917.1
2017-Oct-03 18:00N 36°22' W 012°21'917.2
2017-Oct-03 17:30N 36°23' W 012°32'917.1
2017-Oct-03 17:00N 36°23' W 012°42'917.1
2017-Oct-03 16:30N 36°24' W 012°53'917.2
2017-Oct-03 16:01N 36°24' W 013°03'5017.1
2017-Oct-03 13:05N 36°26' W 014°06'116.9
2017-Oct-03 13:00N 36°26' W 014°07'816.7
2017-Oct-03 12:30N 36°27' W 014°18'816.8
2017-Oct-03 12:00N 36°27' W 014°28'1316.7
2017-Oct-03 11:15N 36°28' W 014°44'416.9
2017-Oct-03 11:00N 36°28' W 014°49'917.4
2017-Oct-03 10:30N 36°29' W 014°60'917.5
2017-Oct-03 10:00N 36°29' W 015°10'1017.4
2017-Oct-03 09:26N 36°29' W 015°23'817.4
2017-Oct-03 09:00N 36°30' W 015°32'917.5
2017-Oct-03 08:30N 36°30' W 015°43'917.5
2017-Oct-03 08:01N 36°30' W 015°54'917.6
2017-Oct-03 07:30N 36°30' W 016°05'817.3
2017-Oct-03 07:00N 36°31' W 016°16'2417.4
2017-Oct-03 05:37N 36°31' W 016°46'717.6
2017-Oct-03 05:12N 36°31' W 016°55'3417.7
2017-Oct-03 03:18N 36°31' W 017°37'517.5
2017-Oct-03 02:59N 36°31' W 017°44'2917.4
2017-Oct-03 01:19N 36°31' W 018°20'517.2
2017-Oct-03 01:00N 36°31' W 018°26'917.5
2017-Oct-03 00:30N 36°31' W 018°37'1817.3
2017-Oct-02 23:26N 36°32' W 019°00'717.4
2017-Oct-02 23:00N 36°32' W 019°10'3717.7
2017-Oct-02 20:55N 36°31' W 019°55'3017.8
2017-Oct-02 19:14N 36°30' W 020°33'517.9
2017-Oct-02 18:58N 36°30' W 020°39'10118.0
2017-Oct-02 13:22N 36°27' W 022°44'3218.1
2017-Oct-02 11:37N 36°26' W 023°23'318.2
2017-Oct-02 11:27N 36°26' W 023°27'818.5
2017-Oct-02 11:00N 36°25' W 023°38'1018.3
2017-Oct-02 10:26N 36°24' W 023°50'818.4
2017-Oct-02 10:00N 36°24' W 024°00'918.5
2017-Oct-02 09:30N 36°24' W 024°12'918.5
2017-Oct-02 09:00N 36°23' W 024°23'918.4
2017-Oct-02 08:30N 36°22' W 024°35'918.7
2017-Oct-02 08:00N 36°22' W 024°46'918.3
2017-Oct-02 07:30N 36°21' W 024°57'918.3
2017-Oct-02 07:00N 36°21' W 025°09'918.2
2017-Oct-02 06:30N 36°20' W 025°20'918.3
2017-Oct-02 06:00N 36°19' W 025°31'918.1
2017-Oct-02 05:31N 36°18' W 025°43'918.4
2017-Oct-02 05:00N 36°18' W 025°54'918.3
2017-Oct-02 04:30N 36°17' W 026°05'2318.4
2017-Oct-02 03:14N 36°15' W 026°34'418.5
2017-Oct-02 03:00N 36°15' W 026°40'918.1
2017-Oct-02 02:30N 36°14' W 026°51'918.3
2017-Oct-02 02:00N 36°13' W 027°02'918.3
2017-Oct-02 01:30N 36°12' W 027°13'918.1
2017-Oct-02 01:00N 36°11' W 027°24'918.2
2017-Oct-02 00:30N 36°10' W 027°36'918.1
2017-Oct-01 23:59N 36°09' W 027°47'  
Track history (hours):
 
Tides and Currents Weather Stations Pressure Air Temp Water Temp Dewpoint Dewpoint Depression Visibility Wind Speed Wind Dir Waves Ship Positions

Anna Maersk

Last reported at 2017-Oct-06 18:52 UTC. Time now 2017-Oct-20 17:45 UTC.
Position N 36°19' E 014°51'.
Warning: this ship's position is 13 days out of date.

Length 352 m; draft 11.3 m.

Type: Ship (hazmat cat A). MMSI: 220199000.

Date/timePositionNaut miles runAvg speedWind from/ knotsBaromVisibWave heightAir tempDewpointWater temp
2017-Oct-06 18:52N 36°19' E 014°51'718.5
2017-Oct-06 18:30N 36°22' E 014°43'918.7
2017-Oct-06 18:00N 36°26' E 014°33'1019.4
2017-Oct-06 17:30N 36°30' E 014°22'1019.7
2017-Oct-06 17:00N 36°33' E 014°11'1019.7
2017-Oct-06 16:30N 36°36' E 013°59'1019.3
2017-Oct-06 16:00N 36°38' E 013°47'919.1
2017-Oct-06 15:30N 36°40' E 013°36'  
2017-Oct-04 06:41N 36°03' W 007°51'317.3
2017-Oct-04 06:31N 36°04' W 007°55'1117.3
2017-Oct-04 05:53N 36°05' W 008°08'617.0
2017-Oct-04 05:30N 36°05' W 008°16'917.0
2017-Oct-04 05:00N 36°07' W 008°27'817.2
2017-Oct-04 04:31N 36°07' W 008°37'916.9
2017-Oct-04 04:00N 36°08' W 008°48'917.1
2017-Oct-04 03:30N 36°09' W 008°58'917.3
2017-Oct-04 03:01N 36°10' W 009°09'917.6
2017-Oct-04 02:30N 36°11' W 009°20'917.5
2017-Oct-04 02:00N 36°12' W 009°31'917.2
2017-Oct-04 01:31N 36°12' W 009°41'917.1
2017-Oct-04 01:00N 36°13' W 009°52'916.9
2017-Oct-04 00:27N 36°14' W 010°03'817.1
2017-Oct-04 00:00N 36°14' W 010°13'917.3
2017-Oct-03 23:30N 36°15' W 010°23'917.4
2017-Oct-03 23:01N 36°16' W 010°34'917.3
2017-Oct-03 22:30N 36°17' W 010°45'917.3
2017-Oct-03 22:01N 36°17' W 010°56'917.4
2017-Oct-03 21:30N 36°17' W 011°06'917.3
2017-Oct-03 21:00N 36°18' W 011°17'917.5
2017-Oct-03 20:30N 36°18' W 011°28'917.4
2017-Oct-03 20:00N 36°19' W 011°39'917.2
2017-Oct-03 19:30N 36°20' W 011°49'917.1
2017-Oct-03 19:00N 36°20' W 011°60'917.1
2017-Oct-03 18:30N 36°21' W 012°10'917.1
2017-Oct-03 18:00N 36°22' W 012°21'917.2
2017-Oct-03 17:30N 36°23' W 012°32'917.1
2017-Oct-03 17:00N 36°23' W 012°42'917.1
2017-Oct-03 16:30N 36°24' W 012°53'917.2
2017-Oct-03 16:01N 36°24' W 013°03'5017.1
2017-Oct-03 13:05N 36°26' W 014°06'116.9
2017-Oct-03 13:00N 36°26' W 014°07'816.7
2017-Oct-03 12:30N 36°27' W 014°18'816.8
2017-Oct-03 12:00N 36°27' W 014°28'1316.7
2017-Oct-03 11:15N 36°28' W 014°44'416.9
2017-Oct-03 11:00N 36°28' W 014°49'917.4
2017-Oct-03 10:30N 36°29' W 014°60'917.5
2017-Oct-03 10:00N 36°29' W 015°10'1017.4
2017-Oct-03 09:26N 36°29' W 015°23'817.4
2017-Oct-03 09:00N 36°30' W 015°32'917.5
2017-Oct-03 08:30N 36°30' W 015°43'917.5
2017-Oct-03 08:01N 36°30' W 015°54'917.6
2017-Oct-03 07:30N 36°30' W 016°05'817.3
2017-Oct-03 07:00N 36°31' W 016°16'2417.4
2017-Oct-03 05:37N 36°31' W 016°46'717.6
2017-Oct-03 05:12N 36°31' W 016°55'3417.7
2017-Oct-03 03:18N 36°31' W 017°37'517.5
2017-Oct-03 02:59N 36°31' W 017°44'2917.4
2017-Oct-03 01:19N 36°31' W 018°20'517.2
2017-Oct-03 01:00N 36°31' W 018°26'917.5
2017-Oct-03 00:30N 36°31' W 018°37'1817.3
2017-Oct-02 23:26N 36°32' W 019°00'717.4
2017-Oct-02 23:00N 36°32' W 019°10'3717.7
2017-Oct-02 20:55N 36°31' W 019°55'3017.8
2017-Oct-02 19:14N 36°30' W 020°33'517.9
2017-Oct-02 18:58N 36°30' W 020°39'10118.0
2017-Oct-02 13:22N 36°27' W 022°44'3218.1
2017-Oct-02 11:37N 36°26' W 023°23'318.2
2017-Oct-02 11:27N 36°26' W 023°27'818.5
2017-Oct-02 11:00N 36°25' W 023°38'1018.3
2017-Oct-02 10:26N 36°24' W 023°50'818.4
2017-Oct-02 10:00N 36°24' W 024°00'918.5
2017-Oct-02 09:30N 36°24' W 024°12'918.5
2017-Oct-02 09:00N 36°23' W 024°23'918.4
2017-Oct-02 08:30N 36°22' W 024°35'918.7
2017-Oct-02 08:00N 36°22' W 024°46'918.3
2017-Oct-02 07:30N 36°21' W 024°57'918.3
2017-Oct-02 07:00N 36°21' W 025°09'918.2
2017-Oct-02 06:30N 36°20' W 025°20'918.3
2017-Oct-02 06:00N 36°19' W 025°31'918.1
2017-Oct-02 05:31N 36°18' W 025°43'918.4
2017-Oct-02 05:00N 36°18' W 025°54'918.3
2017-Oct-02 04:30N 36°17' W 026°05'2318.4
2017-Oct-02 03:14N 36°15' W 026°34'418.5
2017-Oct-02 03:00N 36°15' W 026°40'918.1
2017-Oct-02 02:30N 36°14' W 026°51'918.3
2017-Oct-02 02:00N 36°13' W 027°02'918.3
2017-Oct-02 01:30N 36°12' W 027°13'918.1
2017-Oct-02 01:00N 36°11' W 027°24'918.2
2017-Oct-02 00:30N 36°10' W 027°36'918.1
2017-Oct-01 23:59N 36°09' W 027°47'  

Dump ship's entire track history